createdAt,value
2023-02-23T00:01:54.803Z,5.95
2023-02-23T00:04:23.678Z,5.81
2023-02-23T00:06:52.429Z,5.92
2023-02-23T00:09:24.641Z,6.17
2023-02-23T00:11:56.078Z,6.14
2023-02-23T00:14:28.169Z,6.08
2023-02-23T00:16:56.887Z,6.18
2023-02-23T00:19:25.866Z,6.02
2023-02-23T00:21:54.659Z,6.05
2023-02-23T00:24:23.419Z,6.06
2023-02-23T00:26:51.805Z,6.01
2023-02-23T00:29:23.835Z,6.04
2023-02-23T00:31:53.297Z,6.04
2023-02-23T00:34:23.847Z,5.95
2023-02-23T00:36:54.514Z,5.89
2023-02-23T00:39:26.911Z,5.78
2023-02-23T00:41:55.957Z,5.66
2023-02-23T00:44:26.274Z,5.78
2023-02-23T00:46:54.492Z,4.99
2023-02-23T00:49:23.710Z,5.19
2023-02-23T00:51:53.121Z,5.85
2023-02-23T00:54:22.970Z,5.44
2023-02-23T00:56:51.927Z,5.80
2023-02-23T00:59:20.730Z,5.67
2023-02-23T01:01:50.698Z,5.64
2023-02-23T01:04:18.893Z,5.86
2023-02-23T01:06:47.405Z,5.63
2023-02-23T01:09:27.278Z,5.49
2023-02-23T01:12:01.700Z,5.46
2023-02-23T01:14:31.378Z,5.07
2023-02-23T01:17:01.620Z,5.52
2023-02-23T01:19:29.924Z,5.40
2023-02-23T01:21:58.090Z,5.32
2023-02-23T01:24:26.263Z,5.36
2023-02-23T01:26:54.699Z,4.75
2023-02-23T01:29:22.855Z,5.21
2023-02-23T01:31:51.999Z,5.38
2023-02-23T01:34:22.846Z,5.27
2023-02-23T01:36:51.137Z,5.26
2023-02-23T01:39:21.628Z,5.17
2023-02-23T01:41:51.934Z,5.33
2023-02-23T01:44:57.340Z,5.42
2023-02-23T01:47:26.889Z,5.33
2023-02-23T01:49:56.511Z,5.16
2023-02-23T01:52:24.833Z,5.04
2023-02-23T01:54:57.118Z,4.91
2023-02-23T01:57:27.149Z,5.04
2023-02-23T01:59:56.375Z,5.17
2023-02-23T02:02:34.034Z,5.19
2023-02-23T02:05:06.597Z,4.62
2023-02-23T02:07:36.407Z,5.13
2023-02-23T02:10:33.679Z,5.18
2023-02-23T02:13:05.936Z,5.23
2023-02-23T02:15:38.970Z,5.15
2023-02-23T02:18:18.853Z,4.38
2023-02-23T02:21:31.776Z,4.82
2023-02-23T02:24:40.499Z,5.11
2023-02-23T02:27:22.311Z,5.09
2023-02-23T02:30:28.762Z,5.00
2023-02-23T02:33:34.641Z,4.98
2023-02-23T02:36:32.211Z,4.83
2023-02-23T02:39:10.780Z,4.80
2023-02-23T02:41:53.445Z,4.76
2023-02-23T02:44:36.349Z,4.87
2023-02-23T02:47:09.463Z,4.87
2023-02-23T02:49:46.284Z,4.87
2023-02-23T02:52:20.587Z,4.88
2023-02-23T02:54:54.531Z,4.92
2023-02-23T02:57:26.723Z,5.00
2023-02-23T03:00:12.615Z,4.96
2023-02-23T03:02:59.565Z,4.84
2023-02-23T03:05:49.721Z,4.92
2023-02-23T03:08:41.419Z,4.68
2023-02-23T03:11:30.432Z,4.49
2023-02-23T03:14:28.666Z,4.47
2023-02-23T03:17:22.368Z,4.51
2023-02-23T03:20:17.180Z,4.51
2023-02-23T03:23:12.156Z,4.64
2023-02-23T03:26:07.738Z,4.52
2023-02-23T03:29:03.047Z,4.55
2023-02-23T03:31:58.884Z,4.40
2023-02-23T03:34:50.637Z,4.47
2023-02-23T03:37:41.212Z,4.59
2023-02-23T03:40:35.413Z,4.52
2023-02-23T03:43:24.568Z,4.62
2023-02-23T03:46:14.889Z,4.42
2023-02-23T03:49:04.551Z,4.28
2023-02-23T03:51:53.432Z,4.05
2023-02-23T03:54:46.367Z,4.26
2023-02-23T03:57:35.255Z,4.41
2023-02-23T04:00:26.130Z,4.12
2023-02-23T04:03:15.578Z,4.30
2023-02-23T04:06:03.717Z,4.47
2023-02-23T04:08:54.311Z,4.30
2023-02-23T04:11:47.410Z,4.25
2023-02-23T04:14:18.690Z,4.35
2023-02-23T04:16:46.995Z,4.27
2023-02-23T04:19:16.665Z,4.27
2023-02-23T04:21:44.788Z,4.12
2023-02-23T04:24:12.900Z,4.10
2023-02-23T04:26:40.938Z,4.27
2023-02-23T04:29:09.137Z,4.21
2023-02-23T04:31:37.398Z,4.28
2023-02-23T04:34:06.217Z,3.90
2023-02-23T04:36:36.415Z,4.25
2023-02-23T04:39:05.001Z,4.29
2023-02-23T04:41:33.138Z,1.81
2023-02-23T04:44:01.389Z,4.37
2023-02-23T04:46:29.528Z,4.09
2023-02-23T04:48:57.688Z,4.18
2023-02-23T04:51:30.286Z,4.04
2023-02-23T04:53:59.842Z,3.92
2023-02-23T04:56:28.144Z,3.85
2023-02-23T04:58:56.431Z,3.74
2023-02-23T05:01:24.775Z,3.14
2023-02-23T05:03:53.000Z,4.03
2023-02-23T05:06:21.217Z,4.14
2023-02-23T05:08:49.632Z,3.96
2023-02-23T05:11:19.505Z,3.99
2023-02-23T05:13:47.781Z,4.01
2023-02-23T05:16:15.956Z,4.04
2023-02-23T05:18:44.293Z,4.06
2023-02-23T05:21:12.672Z,3.40
2023-02-23T05:23:40.915Z,4.11
2023-02-23T05:26:10.877Z,4.10
2023-02-23T05:28:42.350Z,4.18
2023-02-23T05:31:10.694Z,4.12
2023-02-23T05:33:42.672Z,3.94
2023-02-23T05:36:12.137Z,3.96
2023-02-23T05:38:40.798Z,3.91
2023-02-23T05:41:09.421Z,2.65
2023-02-23T05:43:37.853Z,3.94
2023-02-23T05:46:09.449Z,3.91
2023-02-23T05:48:37.872Z,3.96
2023-02-23T05:51:07.730Z,3.93
2023-02-23T05:53:35.875Z,3.88
2023-02-23T05:56:05.349Z,3.96
2023-02-23T05:58:33.824Z,3.98
2023-02-23T06:01:02.122Z,4.06
2023-02-23T06:03:32.091Z,4.12
2023-02-23T06:06:00.594Z,3.72
2023-02-23T06:08:28.819Z,4.11
2023-02-23T06:10:57.027Z,4.03
2023-02-23T06:13:25.098Z,4.00
2023-02-23T06:15:53.333Z,3.76
2023-02-23T06:18:22.310Z,4.10
2023-02-23T06:20:51.885Z,4.23
2023-02-23T06:23:20.287Z,4.20
2023-02-23T06:25:54.524Z,4.12
2023-02-23T06:28:22.695Z,3.95
2023-02-23T06:30:53.580Z,3.92
2023-02-23T06:33:22.556Z,4.31
2023-02-23T06:35:52.693Z,4.16
2023-02-23T06:38:22.205Z,4.28
2023-02-23T06:40:50.294Z,4.18
2023-02-23T06:43:18.400Z,4.09
2023-02-23T06:45:48.060Z,4.13
2023-02-23T06:48:16.184Z,4.13
2023-02-23T06:50:44.884Z,4.28
2023-02-23T06:53:14.468Z,4.40
2023-02-23T06:55:42.690Z,4.30
2023-02-23T06:58:10.903Z,4.31
2023-02-23T07:00:43.031Z,4.42
2023-02-23T07:03:11.988Z,4.49
2023-02-23T07:05:41.094Z,4.71
2023-02-23T07:08:09.298Z,4.69
2023-02-23T07:10:38.886Z,4.63
2023-02-23T07:13:07.011Z,4.77
2023-02-23T07:15:36.848Z,4.70
2023-02-23T07:18:05.094Z,5.09
2023-02-23T07:20:33.476Z,5.09
2023-02-23T07:23:02.103Z,4.53
2023-02-23T07:25:30.507Z,5.04
2023-02-23T07:28:00.233Z,5.34
2023-02-23T07:30:28.429Z,5.49
2023-02-23T07:32:56.589Z,5.56
2023-02-23T07:35:24.726Z,5.58
2023-02-23T07:37:53.951Z,5.48
2023-02-23T07:40:22.200Z,5.60
2023-02-23T07:42:50.401Z,5.65
2023-02-23T07:45:19.942Z,5.76
2023-02-23T07:47:48.166Z,5.92
2023-02-23T07:50:16.260Z,6.02
2023-02-23T07:52:45.986Z,6.02
2023-02-23T07:55:14.236Z,5.93
2023-02-23T07:57:42.371Z,6.03
2023-02-23T08:00:12.493Z,6.10
2023-02-23T08:02:42.304Z,6.16
2023-02-23T08:05:10.811Z,6.19
2023-02-23T08:07:39.074Z,6.35
2023-02-23T08:10:08.192Z,6.40
2023-02-23T08:12:37.025Z,6.53
2023-02-23T08:15:08.481Z,6.55
2023-02-23T08:17:36.681Z,6.47
2023-02-23T08:20:07.596Z,6.70
2023-02-23T08:22:48.497Z,6.78
2023-02-23T08:25:18.052Z,6.88
2023-02-23T08:27:46.362Z,6.92
2023-02-23T08:30:16.120Z,6.97
2023-02-23T08:32:44.286Z,7.12
2023-02-23T08:35:14.236Z,7.09
2023-02-23T08:37:43.114Z,7.29
2023-02-23T08:40:15.720Z,7.51
2023-02-23T08:42:44.016Z,7.69
2023-02-23T08:45:13.395Z,7.80
2023-02-23T08:47:41.792Z,7.88
2023-02-23T08:50:11.436Z,7.96
2023-02-23T08:52:41.531Z,8.04
2023-02-23T08:55:11.841Z,7.95
2023-02-23T08:57:39.993Z,8.08
2023-02-23T09:00:14.286Z,8.08
2023-02-23T09:02:42.873Z,8.12
2023-02-23T09:05:12.151Z,8.15
2023-02-23T09:07:45.283Z,8.17
2023-02-23T09:10:15.639Z,8.24
2023-02-23T09:12:43.835Z,8.19
2023-02-23T09:15:12.970Z,8.32
2023-02-23T09:17:42.982Z,8.15
2023-02-23T09:20:13.799Z,8.27
2023-02-23T09:22:45.587Z,7.45
2023-02-23T09:25:14.644Z,8.21
2023-02-23T09:27:42.716Z,8.23
2023-02-23T09:30:12.728Z,8.30
2023-02-23T09:32:40.901Z,8.31
2023-02-23T09:35:09.863Z,8.30
2023-02-23T09:37:37.985Z,8.39
2023-02-23T09:40:09.870Z,8.42
2023-02-23T09:42:45.638Z,8.36
2023-02-23T09:45:27.470Z,7.81
2023-02-23T09:48:16.833Z,8.32
2023-02-23T09:50:49.181Z,8.14
2023-02-23T09:53:33.866Z,7.96
2023-02-23T09:56:11.854Z,8.40
2023-02-23T09:58:40.183Z,8.03
2023-02-23T10:01:46.419Z,8.44
2023-02-23T10:04:21.880Z,8.51
2023-02-23T10:06:57.642Z,7.86
2023-02-23T10:09:37.578Z,7.79
2023-02-23T10:12:11.197Z,8.53
2023-02-23T10:15:06.603Z,8.65
2023-02-23T10:17:42.167Z,8.51
2023-02-23T10:20:23.334Z,8.69
2023-02-23T10:22:52.693Z,8.72
2023-02-23T10:25:26.655Z,8.78
2023-02-23T10:27:57.614Z,8.91
2023-02-23T10:30:27.263Z,8.93
2023-02-23T10:33:02.658Z,8.95
2023-02-23T10:35:32.226Z,9.14
2023-02-23T10:38:03.286Z,9.18
2023-02-23T10:40:35.748Z,9.28
2023-02-23T10:43:05.381Z,9.37
2023-02-23T10:45:40.603Z,9.43
2023-02-23T10:48:14.581Z,9.45
2023-02-23T10:50:43.996Z,9.21
2023-02-23T10:53:17.290Z,9.35
2023-02-23T10:55:46.810Z,8.80
2023-02-23T10:58:18.994Z,8.99
2023-02-23T11:00:58.117Z,9.21
2023-02-23T11:03:33.411Z,9.94
2023-02-23T11:06:02.508Z,10.03
2023-02-23T11:08:33.485Z,10.20
2023-02-23T11:11:19.427Z,9.91
2023-02-23T11:13:51.197Z,10.41
2023-02-23T11:16:22.226Z,10.47
2023-02-23T11:18:55.453Z,10.54
2023-02-23T11:21:29.536Z,10.63
2023-02-23T11:23:59.710Z,10.73
2023-02-23T11:26:37.711Z,10.88
2023-02-23T11:29:18.831Z,10.99
2023-02-23T11:31:53.291Z,11.07
2023-02-23T11:34:29.055Z,11.08
2023-02-23T11:37:03.213Z,10.95
2023-02-23T11:39:31.337Z,10.91
2023-02-23T11:42:15.237Z,11.28
2023-02-23T11:44:45.255Z,11.27
2023-02-23T11:47:19.066Z,11.25
2023-02-23T11:49:49.435Z,11.19
2023-02-23T11:52:21.209Z,11.11
2023-02-23T11:54:54.145Z,10.83
2023-02-23T11:57:24.376Z,10.27
2023-02-23T11:59:54.544Z,10.46
2023-02-23T12:02:25.990Z,10.99
2023-02-23T12:05:03.656Z,11.00
2023-02-23T12:07:41.858Z,10.91
2023-02-23T12:10:23.144Z,10.89
2023-02-23T12:12:58.486Z,10.85
2023-02-23T12:15:36.632Z,10.91
2023-02-23T12:18:13.331Z,10.87
2023-02-23T12:20:44.794Z,10.83
2023-02-23T12:23:16.997Z,10.60
2023-02-23T12:25:49.012Z,10.35
2023-02-23T12:28:26.180Z,10.67
2023-02-23T12:31:01.368Z,10.40
2023-02-23T12:33:34.626Z,10.51
2023-02-23T12:36:13.053Z,10.53
2023-02-23T12:38:51.291Z,10.46
2023-02-23T12:41:26.587Z,10.52
2023-02-23T12:44:00.971Z,10.46
2023-02-23T12:46:35.581Z,10.47
2023-02-23T12:49:14.002Z,10.57
2023-02-23T12:51:48.415Z,9.95
2023-02-23T12:54:18.651Z,10.60
2023-02-23T12:56:56.034Z,10.44
2023-02-23T12:59:51.582Z,10.65
2023-02-23T13:02:30.878Z,10.59
2023-02-23T13:05:24.703Z,10.53
2023-02-23T13:08:12.698Z,10.55
2023-02-23T13:10:52.454Z,10.42
2023-02-23T13:13:34.538Z,10.27
2023-02-23T13:16:13.037Z,10.45
2023-02-23T13:18:48.681Z,10.53
2023-02-23T13:21:21.940Z,10.28
2023-02-23T13:23:59.885Z,10.52
2023-02-23T13:26:37.144Z,10.41
2023-02-23T13:29:12.183Z,10.64
2023-02-23T13:31:42.981Z,10.62
2023-02-23T13:34:18.368Z,10.54
2023-02-23T13:36:47.177Z,10.50
2023-02-23T13:39:39.407Z,10.46
2023-02-23T13:42:21.586Z,9.91
2023-02-23T13:44:56.716Z,10.45
2023-02-23T13:47:38.284Z,10.45
2023-02-23T13:50:22.626Z,10.44
2023-02-23T13:52:54.249Z,10.39
2023-02-23T13:55:49.823Z,10.29
2023-02-23T13:58:28.884Z,10.32
2023-02-23T14:01:07.160Z,10.26
2023-02-23T14:03:42.399Z,10.41
2023-02-23T14:06:15.310Z,10.09
2023-02-23T14:08:45.745Z,9.96
2023-02-23T14:11:38.688Z,10.38
2023-02-23T14:14:07.217Z,10.22
2023-02-23T14:16:37.239Z,9.58
2023-02-23T14:19:32.195Z,10.23
2023-02-23T14:22:06.780Z,10.18
2023-02-23T14:24:35.088Z,10.20
2023-02-23T14:27:41.857Z,10.25
2023-02-23T14:30:44.774Z,10.24
2023-02-23T14:33:50.721Z,10.05
2023-02-23T14:36:43.254Z,10.30
2023-02-23T14:39:19.245Z,9.63
2023-02-23T14:41:51.863Z,10.29
2023-02-23T14:44:29.995Z,9.98
2023-02-23T14:47:03.703Z,10.38
2023-02-23T14:49:37.007Z,9.64
2023-02-23T14:52:10.106Z,10.33
2023-02-23T14:54:41.415Z,9.80
2023-02-23T14:57:19.115Z,10.33
2023-02-23T14:59:54.287Z,10.36
2023-02-23T15:02:25.356Z,10.38
2023-02-23T15:04:53.542Z,10.37
2023-02-23T15:07:32.216Z,10.45
2023-02-23T15:10:05.381Z,10.55
2023-02-23T15:12:38.031Z,10.61
2023-02-23T15:15:17.104Z,10.60
2023-02-23T15:17:48.149Z,9.95
2023-02-23T15:20:19.094Z,10.42
2023-02-23T15:22:49.783Z,10.37
2023-02-23T15:25:21.576Z,10.34
2023-02-23T15:27:52.009Z,10.44
2023-02-23T15:30:23.276Z,10.36
2023-02-23T15:33:01.108Z,10.31
2023-02-23T15:35:30.571Z,9.93
2023-02-23T15:38:14.226Z,10.38
2023-02-23T15:40:55.747Z,9.42
2023-02-23T15:43:24.683Z,10.25
2023-02-23T15:45:56.008Z,10.25
2023-02-23T15:48:26.369Z,9.09
2023-02-23T15:50:57.710Z,10.03
2023-02-23T15:53:30.429Z,10.36
2023-02-23T15:56:05.155Z,10.40
2023-02-23T15:58:44.453Z,10.31
2023-02-23T16:01:24.950Z,10.28
2023-02-23T16:04:01.886Z,10.13
2023-02-23T16:06:34.737Z,10.37
2023-02-23T16:09:20.024Z,10.44
2023-02-23T16:11:53.074Z,10.47
2023-02-23T16:14:22.811Z,10.45
2023-02-23T16:17:08.494Z,10.45
2023-02-23T16:19:41.308Z,10.45
2023-02-23T16:22:20.004Z,10.13
2023-02-23T16:24:56.637Z,10.34
2023-02-23T16:27:29.007Z,10.28
2023-02-23T16:30:01.327Z,10.10
2023-02-23T16:32:38.194Z,9.98
2023-02-23T16:35:16.902Z,9.95
2023-02-23T16:38:00.367Z,9.83
2023-02-23T16:40:29.015Z,9.70
2023-02-23T16:42:59.703Z,9.60
2023-02-23T16:45:29.776Z,9.33
2023-02-23T16:48:02.515Z,9.44
2023-02-23T16:50:32.719Z,9.37
2023-02-23T16:53:02.217Z,9.28
2023-02-23T16:55:31.225Z,8.88
2023-02-23T16:58:04.049Z,9.00
2023-02-23T17:00:33.933Z,8.70
2023-02-23T17:03:02.272Z,8.62
2023-02-23T17:05:30.994Z,8.63
2023-02-23T17:07:59.380Z,8.55
2023-02-23T17:10:31.278Z,8.28
2023-02-23T17:13:04.511Z,8.32
2023-02-23T17:15:35.522Z,8.39
2023-02-23T17:18:04.053Z,8.29
2023-02-23T17:20:32.846Z,8.21
2023-02-23T17:23:02.718Z,8.07
2023-02-23T17:25:31.307Z,7.22
2023-02-23T17:28:02.353Z,7.68
2023-02-23T17:30:31.128Z,7.83
2023-02-23T17:33:00.969Z,7.80
2023-02-23T17:35:32.717Z,7.77
2023-02-23T17:38:00.970Z,7.76
2023-02-23T17:40:29.689Z,7.72
2023-02-23T17:43:01.356Z,7.68
2023-02-23T17:45:30.424Z,7.61
2023-02-23T17:47:59.568Z,7.47
2023-02-23T17:50:28.371Z,7.45
2023-02-23T17:52:57.462Z,7.53
2023-02-23T17:55:26.845Z,7.38
2023-02-23T17:57:55.137Z,7.44
2023-02-23T18:00:25.394Z,7.39
2023-02-23T18:02:53.797Z,7.35
2023-02-23T18:05:22.533Z,7.32
2023-02-23T18:07:50.739Z,7.28
2023-02-23T18:10:19.450Z,7.00
2023-02-23T18:12:47.636Z,6.69
2023-02-23T18:15:17.516Z,7.16
2023-02-23T18:17:47.419Z,7.13
2023-02-23T18:20:17.138Z,7.05
2023-02-23T18:22:45.756Z,6.57
2023-02-23T18:25:22.049Z,7.10
2023-02-23T18:27:54.120Z,7.09
2023-02-23T18:30:23.553Z,7.07
2023-02-23T18:32:56.556Z,6.84
2023-02-23T18:35:25.171Z,6.99
2023-02-23T18:37:53.379Z,6.95
2023-02-23T18:40:25.941Z,6.94
2023-02-23T18:42:54.075Z,6.89
2023-02-23T18:45:22.303Z,6.75
2023-02-23T18:47:51.592Z,6.77
2023-02-23T18:50:21.804Z,6.82
2023-02-23T18:52:51.502Z,6.83
2023-02-23T18:55:22.360Z,6.81
2023-02-23T18:57:51.085Z,6.45
2023-02-23T19:00:20.498Z,6.87
2023-02-23T19:02:49.283Z,6.84
2023-02-23T19:05:20.874Z,6.84
2023-02-23T19:07:51.408Z,6.75
2023-02-23T19:10:20.245Z,6.75
2023-02-23T19:12:48.463Z,6.72
2023-02-23T19:15:17.634Z,6.80
2023-02-23T19:17:47.543Z,6.81
2023-02-23T19:20:16.298Z,6.81
2023-02-23T19:22:45.903Z,6.80
2023-02-23T19:25:17.007Z,6.56
2023-02-23T19:27:45.248Z,6.79
2023-02-23T19:30:15.052Z,6.79
2023-02-23T19:32:44.566Z,6.00
2023-02-23T19:35:19.463Z,6.77
2023-02-23T19:37:49.407Z,6.82
2023-02-23T19:40:22.914Z,6.44
2023-02-23T19:42:53.399Z,6.65
2023-02-23T19:45:22.537Z,6.74
2023-02-23T19:47:54.274Z,6.43
2023-02-23T19:50:23.621Z,6.68
2023-02-23T19:52:53.019Z,6.36
2023-02-23T19:55:22.895Z,6.58
2023-02-23T19:57:52.761Z,6.70
2023-02-23T20:00:22.456Z,6.73
2023-02-23T20:02:55.718Z,6.79
2023-02-23T20:05:26.226Z,6.82
2023-02-23T20:07:55.720Z,6.82
2023-02-23T20:10:29.224Z,6.79
2023-02-23T20:12:58.448Z,6.48
2023-02-23T20:15:26.877Z,6.58
2023-02-23T20:17:55.627Z,6.43
2023-02-23T20:20:25.953Z,6.41
2023-02-23T20:22:55.547Z,6.58
2023-02-23T20:25:27.310Z,6.26
2023-02-23T20:27:56.073Z,6.61
2023-02-23T20:30:24.601Z,6.11
2023-02-23T20:32:52.858Z,6.74
2023-02-23T20:35:21.483Z,6.71
2023-02-23T20:37:49.754Z,6.68
2023-02-23T20:40:18.849Z,6.53
2023-02-23T20:42:50.156Z,6.66
2023-02-23T20:45:20.923Z,6.66
2023-02-23T20:47:53.151Z,6.68
2023-02-23T20:50:22.925Z,6.53
2023-02-23T20:52:51.769Z,6.61
2023-02-23T20:55:20.885Z,6.73
2023-02-23T20:57:53.445Z,6.73
2023-02-23T21:00:24.402Z,6.62
2023-02-23T21:02:56.378Z,6.24
2023-02-23T21:05:27.702Z,6.89
2023-02-23T21:08:00.138Z,6.83
2023-02-23T21:10:32.038Z,6.85
2023-02-23T21:13:06.054Z,6.49
2023-02-23T21:15:35.292Z,6.46
2023-02-23T21:18:03.534Z,6.58
2023-02-23T21:20:31.895Z,6.66
2023-02-23T21:23:00.645Z,6.67
2023-02-23T21:25:29.804Z,6.56
2023-02-23T21:28:02.016Z,6.65
2023-02-23T21:30:32.044Z,6.71
2023-02-23T21:33:01.353Z,6.73
2023-02-23T21:35:29.920Z,6.75
2023-02-23T21:37:59.509Z,6.63
2023-02-23T21:40:28.034Z,6.58
2023-02-23T21:42:57.292Z,6.60
2023-02-23T21:45:25.581Z,6.64
2023-02-23T21:47:56.066Z,6.66
2023-02-23T21:50:24.360Z,6.71
2023-02-23T21:52:54.188Z,6.72
2023-02-23T21:55:23.601Z,6.65
2023-02-23T21:57:52.781Z,6.53
2023-02-23T22:00:23.028Z,6.62
2023-02-23T22:02:51.833Z,6.72
2023-02-23T22:05:21.691Z,6.67
2023-02-23T22:07:51.225Z,6.53
2023-02-23T22:10:21.488Z,6.53
2023-02-23T22:12:56.053Z,6.55
2023-02-23T22:15:28.507Z,6.65
2023-02-23T22:17:57.167Z,6.14
2023-02-23T22:20:27.006Z,6.21
2023-02-23T22:22:55.199Z,6.54
2023-02-23T22:25:23.416Z,6.67
2023-02-23T22:27:51.551Z,6.67
2023-02-23T22:30:23.029Z,6.65
2023-02-23T22:32:51.698Z,6.57
2023-02-23T22:35:20.104Z,6.62
2023-02-23T22:37:49.858Z,6.70
2023-02-23T22:40:18.586Z,6.55
2023-02-23T22:42:49.362Z,6.43
2023-02-23T22:45:18.262Z,6.53
2023-02-23T22:47:46.548Z,6.66
2023-02-23T22:50:18.143Z,6.56
2023-02-23T22:52:47.595Z,6.61
2023-02-23T22:55:19.390Z,6.44
2023-02-23T22:57:47.784Z,6.52
2023-02-23T23:00:19.833Z,6.54
2023-02-23T23:02:48.444Z,6.60
2023-02-23T23:05:17.628Z,6.44
2023-02-23T23:07:47.754Z,6.56
2023-02-23T23:10:17.847Z,6.55
2023-02-23T23:12:46.812Z,6.44
2023-02-23T23:15:19.063Z,6.42
2023-02-23T23:17:49.349Z,6.26
2023-02-23T23:20:23.071Z,6.60
2023-02-23T23:22:51.274Z,6.60
2023-02-23T23:25:23.209Z,6.59
2023-02-23T23:27:54.010Z,6.59
2023-02-23T23:30:26.149Z,6.45
2023-02-23T23:32:54.559Z,6.52
2023-02-23T23:35:23.152Z,6.51
2023-02-23T23:37:52.157Z,6.30
2023-02-23T23:40:24.603Z,6.41
2023-02-23T23:42:55.934Z,6.50
2023-02-23T23:45:25.354Z,6.16
2023-02-23T23:47:53.505Z,6.42
2023-02-23T23:50:26.917Z,6.65
2023-02-23T23:52:56.825Z,6.68
2023-02-23T23:55:31.086Z,6.59
2023-02-23T23:58:00.429Z,5.67
